sim
Sign-in with your pilot id or email,
or register
Callsign
Passwort

Schedule Details

Flight Number: DLH766
Departure: Munich Airport (EDDM) at 10:10
Arrival: Mumbai Chhatrapati Shivaji International Airport (VABB) at 18:25
Route: Lufthansa Passenger Schedule. Enter filed route here before submitting Pirep.

Weather Information
Getting current METAR information for EDDM 191750Z 02003KT 340V060 9999 FEW035 21/17 Q1019 NOSIG
Getting current METAR information for VABB 191730Z 24007KT 3500 HZ SCT020 28/25 Q1010 NOSIG

Schedule Frequency

Route Map